sensor_id;sensor_type;location;lat;lon;timestamp;pressure;altitude;pressure_sealevel;temperature;humidity
19208;BME280;9737;59.466;18.036;2023-01-09T00:01:28;97492.13;;;3.30;89.31
19208;BME280;9737;59.466;18.036;2023-01-09T00:03:56;97473.06;;;3.28;89.11
19208;BME280;9737;59.466;18.036;2023-01-09T00:06:24;97472.22;;;3.28;89.04
19208;BME280;9737;59.466;18.036;2023-01-09T00:08:52;97453.31;;;3.24;89.27
19208;BME280;9737;59.466;18.036;2023-01-09T00:11:20;97451.63;;;3.23;88.87
19208;BME280;9737;59.466;18.036;2023-01-09T00:13:49;97462.84;;;3.25;89.01
19208;BME280;9737;59.466;18.036;2023-01-09T00:16:17;97495.44;;;3.32;88.83
19208;BME280;9737;59.466;18.036;2023-01-09T00:18:45;97481.63;;;3.30;88.81
19208;BME280;9737;59.466;18.036;2023-01-09T00:21:13;97489.38;;;3.32;88.62
19208;BME280;9737;59.466;18.036;2023-01-09T00:23:41;97507.34;;;3.36;89.18
19208;BME280;9737;59.466;18.036;2023-01-09T00:26:11;97485.09;;;3.31;89.28
19208;BME280;9737;59.466;18.036;2023-01-09T00:28:39;97492.81;;;3.32;88.91
19208;BME280;9737;59.466;18.036;2023-01-09T00:31:09;97498.22;;;3.31;88.88
19208;BME280;9737;59.466;18.036;2023-01-09T00:33:40;97490.06;;;3.34;89.39
19208;BME280;9737;59.466;18.036;2023-01-09T00:36:09;97481.63;;;3.30;89.26
19208;BME280;9737;59.466;18.036;2023-01-09T00:38:38;97475.81;;;3.27;89.11
19208;BME280;9737;59.466;18.036;2023-01-09T00:41:08;97535.53;;;3.44;89.36
19208;BME280;9737;59.466;18.036;2023-01-09T00:43:41;97524.19;;;3.43;89.36
19208;BME280;9737;59.466;18.036;2023-01-09T00:46:13;97524.47;;;3.40;89.22
19208;BME280;9737;59.466;18.036;2023-01-09T00:48:43;97532.78;;;3.46;89.37
19208;BME280;9737;59.466;18.036;2023-01-09T00:51:13;97544.94;;;3.47;89.06
19208;BME280;9737;59.466;18.036;2023-01-09T00:53:41;97547.56;;;3.47;88.69
19208;BME280;9737;59.466;18.036;2023-01-09T00:56:12;97591.16;;;3.59;89.62
19208;BME280;9737;59.466;18.036;2023-01-09T00:58:41;97571.38;;;3.55;88.99
19208;BME280;9737;59.466;18.036;2023-01-09T01:01:09;97569.03;;;3.52;89.22
19208;BME280;9737;59.466;18.036;2023-01-09T01:03:39;97574.00;;;3.55;89.11
19208;BME280;9737;59.466;18.036;2023-01-09T01:06:07;97587.69;;;3.58;88.83
19208;BME280;9737;59.466;18.036;2023-01-09T01:08:53;97581.75;;;3.56;89.27
19208;BME280;9737;59.466;18.036;2023-01-09T01:11:22;97603.03;;;3.63;89.16
19208;BME280;9737;59.466;18.036;2023-01-09T01:13:51;97601.38;;;3.62;89.01
19208;BME280;9737;59.466;18.036;2023-01-09T01:16:19;97632.38;;;3.68;89.17
19208;BME280;9737;59.466;18.036;2023-01-09T01:18:48;97618.53;;;3.66;88.95
19208;BME280;9737;59.466;18.036;2023-01-09T01:21:16;97591.16;;;3.59;88.91
19208;BME280;9737;59.466;18.036;2023-01-09T01:23:44;97594.75;;;3.58;89.12
19208;BME280;9737;59.466;18.036;2023-01-09T01:26:14;97594.75;;;3.58;89.19
19208;BME280;9737;59.466;18.036;2023-01-09T01:28:43;97584.38;;;3.56;89.06
19208;BME280;9737;59.466;18.036;2023-01-09T01:31:16;97618.94;;;3.61;89.29
19208;BME280;9737;59.466;18.036;2023-01-09T01:33:44;97637.63;;;3.68;89.05
19208;BME280;9737;59.466;18.036;2023-01-09T01:36:13;97651.19;;;3.73;89.02
19208;BME280;9737;59.466;18.036;2023-01-09T01:38:43;97651.31;;;3.71;88.95
19208;BME280;9737;59.466;18.036;2023-01-09T01:41:13;97665.00;;;3.75;89.39
19208;BME280;9737;59.466;18.036;2023-01-09T01:43:58;97614.38;;;3.63;89.10
19208;BME280;9737;59.466;18.036;2023-01-09T01:46:26;97604.97;;;3.61;88.99
19208;BME280;9737;59.466;18.036;2023-01-09T01:48:59;97595.72;;;3.57;88.92
19208;BME280;9737;59.466;18.036;2023-01-09T01:51:34;97600.81;;;3.58;89.41
19208;BME280;9737;59.466;18.036;2023-01-09T01:54:06;97616.88;;;3.65;89.05
19208;BME280;9737;59.466;18.036;2023-01-09T01:56:36;97650.22;;;3.74;89.09
19208;BME280;9737;59.466;18.036;2023-01-09T01:59:08;97649.50;;;3.72;89.15
19208;BME280;9737;59.466;18.036;2023-01-09T02:01:37;97638.59;;;3.67;89.34
19208;BME280;9737;59.466;18.036;2023-01-09T02:04:08;97638.44;;;3.68;89.16
19208;BME280;9737;59.466;18.036;2023-01-09T02:06:38;97651.19;;;3.73;89.12
19208;BME280;9737;59.466;18.036;2023-01-09T02:09:06;97677.91;;;3.78;88.93
19208;BME280;9737;59.466;18.036;2023-01-09T02:11:35;97674.44;;;3.78;89.31
19208;BME280;9737;59.466;18.036;2023-01-09T02:14:02;97682.88;;;3.81;88.95
19208;BME280;9737;59.466;18.036;2023-01-09T02:16:39;97666.81;;;3.74;88.80
19208;BME280;9737;59.466;18.036;2023-01-09T02:19:33;97666.69;;;3.76;89.01
19208;BME280;9737;59.466;18.036;2023-01-09T02:22:12;97657.41;;;3.72;89.47
19208;BME280;9737;59.466;18.036;2023-01-09T02:25:02;97658.09;;;3.74;89.32
19208;BME280;9737;59.466;18.036;2023-01-09T02:28:01;97667.63;;;3.75;89.07
19208;BME280;9737;59.466;18.036;2023-01-09T02:30:43;97646.06;;;3.71;89.27
19208;BME280;9737;59.466;18.036;2023-01-09T02:33:31;97672.78;;;3.77;89.39
19208;BME280;9737;59.466;18.036;2023-01-09T02:36:18;97681.91;;;3.82;89.31
19208;BME280;9737;59.466;18.036;2023-01-09T02:38:57;97668.38;;;3.77;89.39
19208;BME280;9737;59.466;18.036;2023-01-09T02:41:30;97661.44;;;3.76;88.92
19208;BME280;9737;59.466;18.036;2023-01-09T02:44:15;97673.63;;;3.77;89.41
19208;BME280;9737;59.466;18.036;2023-01-09T02:46:45;97665.00;;;3.75;89.25
19208;BME280;9737;59.466;18.036;2023-01-09T02:49:15;97661.44;;;3.76;89.01
19208;BME280;9737;59.466;18.036;2023-01-09T02:51:50;97656.72;;;3.70;89.39
19208;BME280;9737;59.466;18.036;2023-01-09T02:54:30;97660.72;;;3.74;89.09
19208;BME280;9737;59.466;18.036;2023-01-09T02:57:13;97685.53;;;3.81;88.68
19208;BME280;9737;59.466;18.036;2023-01-09T02:59:57;97672.66;;;3.78;89.37
19208;BME280;9737;59.466;18.036;2023-01-09T03:02:38;97683.84;;;3.80;89.42
19208;BME280;9737;59.466;18.036;2023-01-09T03:05:15;97679.44;;;3.81;89.55
19208;BME280;9737;59.466;18.036;2023-01-09T03:07:48;97643.97;;;3.65;88.99
19208;BME280;9737;59.466;18.036;2023-01-09T03:10:23;97652.00;;;3.73;89.30
19208;BME280;9737;59.466;18.036;2023-01-09T03:12:55;97663.34;;;3.74;89.38
19208;BME280;9737;59.466;18.036;2023-01-09T03:15:30;97653.94;;;3.71;89.18
19208;BME280;9737;59.466;18.036;2023-01-09T03:18:01;97668.38;;;3.77;89.29
19208;BME280;9737;59.466;18.036;2023-01-09T03:20:31;97638.44;;;3.68;89.10
19208;BME280;9737;59.466;18.036;2023-01-09T03:23:01;97635.97;;;3.67;89.56
19208;BME280;9737;59.466;18.036;2023-01-09T03:25:29;97650.47;;;3.71;88.93
19208;BME280;9737;59.466;18.036;2023-01-09T03:27:59;97654.78;;;3.72;89.30
19208;BME280;9737;59.466;18.036;2023-01-09T03:30:28;97646.19;;;3.70;89.00
19208;BME280;9737;59.466;18.036;2023-01-09T03:32:57;97641.78;;;3.70;89.30
19208;BME280;9737;59.466;18.036;2023-01-09T03:35:26;97671.97;;;3.76;89.57
19208;BME280;9737;59.466;18.036;2023-01-09T03:37:54;97673.63;;;3.77;89.07
19208;BME280;9737;59.466;18.036;2023-01-09T03:40:22;97655.59;;;3.72;89.08
19208;BME280;9737;59.466;18.036;2023-01-09T03:42:50;97643.56;;;3.70;89.11
19208;BME280;9737;59.466;18.036;2023-01-09T03:45:17;97637.63;;;3.68;89.07
19208;BME280;9737;59.466;18.036;2023-01-09T03:47:45;97658.94;;;3.74;89.38
19208;BME280;9737;59.466;18.036;2023-01-09T03:50:15;97668.38;;;3.77;89.07
19208;BME280;9737;59.466;18.036;2023-01-09T03:52:45;97658.38;;;3.71;89.64
19208;BME280;9737;59.466;18.036;2023-01-09T03:55:13;97660.03;;;3.72;89.58
19208;BME280;9737;59.466;18.036;2023-01-09T03:57:41;97657.41;;;3.72;89.00
19208;BME280;9737;59.466;18.036;2023-01-09T04:00:10;97667.53;;;3.77;89.31
19208;BME280;9737;59.466;18.036;2023-01-09T04:02:38;97752.34;;;3.98;89.02
19208;BME280;9737;59.466;18.036;2023-01-09T04:05:07;97779.91;;;4.03;89.04
19208;BME280;9737;59.466;18.036;2023-01-09T04:07:34;97740.31;;;3.95;89.06
19208;BME280;9737;59.466;18.036;2023-01-09T04:10:04;97732.00;;;3.90;89.42
19208;BME280;9737;59.466;18.036;2023-01-09T04:12:32;97755.00;;;3.98;89.08
19208;BME280;9737;59.466;18.036;2023-01-09T04:15:00;97716.38;;;3.89;89.53
19208;BME280;9737;59.466;18.036;2023-01-09T04:17:28;97749.72;;;3.98;89.42
19208;BME280;9737;59.466;18.036;2023-01-09T04:19:55;97765.38;;;3.99;89.55
19208;BME280;9737;59.466;18.036;2023-01-09T04:22:24;97741.97;;;3.96;88.93
19208;BME280;9737;59.466;18.036;2023-01-09T04:24:52;97726.06;;;3.88;89.34
19208;BME280;9737;59.466;18.036;2023-01-09T04:27:21;97716.66;;;3.86;89.04
19208;BME280;9737;59.466;18.036;2023-01-09T04:29:49;97767.72;;;4.02;89.26
19208;BME280;9737;59.466;18.036;2023-01-09T04:32:17;97743.09;;;3.94;89.09
19208;BME280;9737;59.466;18.036;2023-01-09T04:34:46;97732.00;;;3.90;89.02
19208;BME280;9737;59.466;18.036;2023-01-09T04:37:15;97708.75;;;3.86;88.99
19208;BME280;9737;59.466;18.036;2023-01-09T04:39:43;97697.69;;;3.82;89.33
19208;BME280;9737;59.466;18.036;2023-01-09T04:42:11;97752.50;;;3.96;89.35
19208;BME280;9737;59.466;18.036;2023-01-09T04:44:41;97735.34;;;3.92;89.05
19208;BME280;9737;59.466;18.036;2023-01-09T04:47:09;97730.22;;;3.91;89.06
19208;BME280;9737;59.466;18.036;2023-01-09T04:49:39;97700.19;;;3.84;89.19
19208;BME280;9737;59.466;18.036;2023-01-09T04:52:06;97721.78;;;3.87;89.43
19208;BME280;9737;59.466;18.036;2023-01-09T04:54:36;97706.28;;;3.84;89.16
19208;BME280;9737;59.466;18.036;2023-01-09T04:57:05;97702.81;;;3.84;89.64
19208;BME280;9737;59.466;18.036;2023-01-09T04:59:32;97689.25;;;3.79;89.44
19208;BME280;9737;59.466;18.036;2023-01-09T05:02:03;97670.28;;;3.75;89.34
19208;BME280;9737;59.466;18.036;2023-01-09T05:04:31;97660.03;;;3.72;89.21
19208;BME280;9737;59.466;18.036;2023-01-09T05:06:59;97639.41;;;3.67;89.24
19208;BME280;9737;59.466;18.036;2023-01-09T05:09:27;97605.25;;;3.58;89.39
19208;BME280;9737;59.466;18.036;2023-01-09T05:11:55;97600.00;;;3.58;89.14
19208;BME280;9737;59.466;18.036;2023-01-09T05:14:23;97595.72;;;3.57;89.46
19208;BME280;9737;59.466;18.036;2023-01-09T05:16:51;97572.63;;;3.51;89.55
19208;BME280;9737;59.466;18.036;2023-01-09T05:19:20;97563.22;;;3.48;89.04
19208;BME280;9737;59.466;18.036;2023-01-09T05:21:49;97560.44;;;3.50;89.68
19208;BME280;9737;59.466;18.036;2023-01-09T05:24:17;97583.81;;;3.53;88.97
19208;BME280;9737;59.466;18.036;2023-01-09T05:26:45;97604.44;;;3.57;89.53
19208;BME280;9737;59.466;18.036;2023-01-09T05:29:13;97657.53;;;3.70;89.32
19208;BME280;9737;59.466;18.036;2023-01-09T05:31:41;97685.78;;;3.78;89.46
19208;BME280;9737;59.466;18.036;2023-01-09T05:34:09;97706.28;;;3.84;89.00
19208;BME280;9737;59.466;18.036;2023-01-09T05:36:38;97706.28;;;3.84;89.10
19208;BME280;9737;59.466;18.036;2023-01-09T05:39:06;97707.94;;;3.85;89.13
19208;BME280;9737;59.466;18.036;2023-01-09T05:41:34;97689.13;;;3.80;89.36
19208;BME280;9737;59.466;18.036;2023-01-09T05:44:02;97692.72;;;3.79;89.12
19208;BME280;9737;59.466;18.036;2023-01-09T05:46:30;97668.59;;;3.74;89.63
19208;BME280;9737;59.466;18.036;2023-01-09T05:49:00;97667.78;;;3.73;89.25
19208;BME280;9737;59.466;18.036;2023-01-09T05:51:28;97658.09;;;3.74;89.06
19208;BME280;9737;59.466;18.036;2023-01-09T05:53:58;97696.72;;;3.83;89.51
19208;BME280;9737;59.466;18.036;2023-01-09T05:56:27;97702.94;;;3.82;89.13
19208;BME280;9737;59.466;18.036;2023-01-09T05:58:56;97751.66;;;3.96;89.50
19208;BME280;9737;59.466;18.036;2023-01-09T06:01:23;97778.25;;;4.02;89.39
19208;BME280;9737;59.466;18.036;2023-01-09T06:03:51;97757.75;;;3.96;89.45
19208;BME280;9737;59.466;18.036;2023-01-09T06:06:19;97757.47;;;3.99;89.59
19208;BME280;9737;59.466;18.036;2023-01-09T06:08:48;97779.91;;;4.03;89.30
19208;BME280;9737;59.466;18.036;2023-01-09T06:11:17;97771.31;;;4.01;89.49
19208;BME280;9737;59.466;18.036;2023-01-09T06:13:45;97791.25;;;4.04;89.46
19208;BME280;9737;59.466;18.036;2023-01-09T06:16:13;97754.16;;;3.97;89.33
19208;BME280;9737;59.466;18.036;2023-01-09T06:18:41;97735.34;;;3.92;89.46
19208;BME280;9737;59.466;18.036;2023-01-09T06:21:10;97731.88;;;3.92;89.75
19208;BME280;9737;59.466;18.036;2023-01-09T06:23:38;97714.16;;;3.84;89.57
19208;BME280;9737;59.466;18.036;2023-01-09T06:26:05;97716.78;;;3.84;89.49
19208;BME280;9737;59.466;18.036;2023-01-09T06:28:35;97722.59;;;3.88;89.33
19208;BME280;9737;59.466;18.036;2023-01-09T06:31:02;97720.09;;;3.86;89.04
19208;BME280;9737;59.466;18.036;2023-01-09T06:33:30;97749.44;;;3.91;89.30
19208;BME280;9737;59.466;18.036;2023-01-09T06:35:58;97738.94;;;3.91;89.47
19208;BME280;9737;59.466;18.036;2023-01-09T06:38:26;97701.28;;;3.81;89.01
19208;BME280;9737;59.466;18.036;2023-01-09T06:40:54;97671.25;;;3.74;88.97
19208;BME280;9737;59.466;18.036;2023-01-09T06:43:22;97656.56;;;3.71;88.88
19208;BME280;9737;59.466;18.036;2023-01-09T06:45:52;97628.34;;;3.64;89.65
19208;BME280;9737;59.466;18.036;2023-01-09T06:48:20;97601.94;;;3.56;89.21
19208;BME280;9737;59.466;18.036;2023-01-09T06:50:50;97576.91;;;3.52;89.23
19208;BME280;9737;59.466;18.036;2023-01-09T06:53:19;97588.25;;;3.52;89.39
19208;BME280;9737;59.466;18.036;2023-01-09T06:55:47;97564.06;;;3.49;89.16
19208;BME280;9737;59.466;18.036;2023-01-09T06:58:16;97566.69;;;3.49;89.10
19208;BME280;9737;59.466;18.036;2023-01-09T07:00:44;97604.69;;;3.54;89.37
19208;BME280;9737;59.466;18.036;2023-01-09T07:03:13;97586.69;;;3.40;89.05
19208;BME280;9737;59.466;18.036;2023-01-09T07:05:45;97632.63;;;3.65;89.07
19208;BME280;9737;59.466;18.036;2023-01-09T07:08:14;97652.41;;;3.69;89.57
19208;BME280;9737;59.466;18.036;2023-01-09T07:10:42;97663.50;;;3.72;89.51
19208;BME280;9737;59.466;18.036;2023-01-09T07:13:10;97678.97;;;3.76;89.12
19208;BME280;9737;59.466;18.036;2023-01-09T07:15:38;97697.00;;;3.80;89.87
19208;BME280;9737;59.466;18.036;2023-01-09T07:18:06;97690.78;;;3.81;89.19
19208;BME280;9737;59.466;18.036;2023-01-09T07:20:37;97679.41;;;3.71;89.47
19208;BME280;9737;59.466;18.036;2023-01-09T07:23:06;97673.03;;;3.73;89.27
19208;BME280;9737;59.466;18.036;2023-01-09T07:25:34;97652.41;;;3.69;89.84
19208;BME280;9737;59.466;18.036;2023-01-09T07:28:02;97639.56;;;3.66;89.18
19208;BME280;9737;59.466;18.036;2023-01-09T07:30:30;97641.22;;;3.67;89.49
19208;BME280;9737;59.466;18.036;2023-01-09T07:32:58;97635.41;;;3.63;89.42
19208;BME280;9737;59.466;18.036;2023-01-09T07:35:29;97627.66;;;3.62;89.40
19208;BME280;9737;59.466;18.036;2023-01-09T07:37:58;97633.59;;;3.64;89.59
19208;BME280;9737;59.466;18.036;2023-01-09T07:40:26;97663.63;;;3.71;89.54
19208;BME280;9737;59.466;18.036;2023-01-09T07:42:54;97657.53;;;3.70;89.31
19208;BME280;9737;59.466;18.036;2023-01-09T07:45:22;97658.38;;;3.71;89.58
19208;BME280;9737;59.466;18.036;2023-01-09T07:47:50;97652.41;;;3.69;89.54
19208;BME280;9737;59.466;18.036;2023-01-09T07:50:18;97645.50;;;3.68;89.24
19208;BME280;9737;59.466;18.036;2023-01-09T07:52:48;97672.19;;;3.73;89.57
19208;BME280;9737;59.466;18.036;2023-01-09T07:55:17;97661.00;;;3.71;89.26
19208;BME280;9737;59.466;18.036;2023-01-09T07:57:47;97673.88;;;3.74;89.23
19208;BME280;9737;59.466;18.036;2023-01-09T08:00:16;97708.22;;;3.82;89.24
19208;BME280;9737;59.466;18.036;2023-01-09T08:02:44;97701.28;;;3.81;89.52
19208;BME280;9737;59.466;18.036;2023-01-09T08:05:12;97669.44;;;3.74;89.66
19208;BME280;9737;59.466;18.036;2023-01-09T08:07:41;97651.72;;;3.67;89.71
19208;BME280;9737;59.466;18.036;2023-01-09T08:10:10;97641.50;;;3.64;89.61
19208;BME280;9737;59.466;18.036;2023-01-09T08:12:42;97626.00;;;3.61;89.11
19208;BME280;9737;59.466;18.036;2023-01-09T08:15:11;97605.25;;;3.58;89.53
19208;BME280;9737;59.466;18.036;2023-01-09T08:17:40;97586.44;;;3.53;89.55
19208;BME280;9737;59.466;18.036;2023-01-09T08:20:09;97574.56;;;3.49;89.45
19208;BME280;9737;59.466;18.036;2023-01-09T08:22:40;97568.59;;;3.47;89.45
19208;BME280;9737;59.466;18.036;2023-01-09T08:25:08;97552.25;;;3.43;89.43
19208;BME280;9737;59.466;18.036;2023-01-09T08:27:38;97546.31;;;3.41;89.45
19208;BME280;9737;59.466;18.036;2023-01-09T08:30:08;97534.16;;;3.40;89.82
19208;BME280;9737;59.466;18.036;2023-01-09T08:32:36;97571.94;;;3.49;89.75
19208;BME280;9737;59.466;18.036;2023-01-09T08:35:05;97562.78;;;3.33;89.05
19208;BME280;9737;59.466;18.036;2023-01-09T08:37:33;97600.28;;;3.55;89.25
19208;BME280;9737;59.466;18.036;2023-01-09T08:40:02;97605.25;;;3.58;89.83
19208;BME280;9737;59.466;18.036;2023-01-09T08:42:30;97635.41;;;3.63;88.97
19208;BME280;9737;59.466;18.036;2023-01-09T08:45:16;97653.38;;;3.68;89.70
19208;BME280;9737;59.466;18.036;2023-01-09T08:48:02;97662.78;;;3.70;89.26
19208;BME280;9737;59.466;18.036;2023-01-09T08:50:30;97663.63;;;3.71;89.51
19208;BME280;9737;59.466;18.036;2023-01-09T08:52:58;97679.94;;;3.74;89.69
19208;BME280;9737;59.466;18.036;2023-01-09T08:55:26;97687.72;;;3.76;89.58
19208;BME280;9737;59.466;18.036;2023-01-09T08:57:54;97686.88;;;3.76;89.63
19208;BME280;9737;59.466;18.036;2023-01-09T09:00:26;97689.38;;;3.77;89.56
19208;BME280;9737;59.466;18.036;2023-01-09T09:02:55;97708.22;;;3.82;89.68
19208;BME280;9737;59.466;18.036;2023-01-09T09:05:24;97717.63;;;3.85;89.63
19208;BME280;9737;59.466;18.036;2023-01-09T09:07:53;97736.56;;;3.88;89.42
19208;BME280;9737;59.466;18.036;2023-01-09T09:10:22;97754.44;;;3.94;89.37
19208;BME280;9737;59.466;18.036;2023-01-09T09:12:51;97755.53;;;3.92;89.44
19208;BME280;9737;59.466;18.036;2023-01-09T09:15:20;97765.78;;;3.95;89.11
19208;BME280;9737;59.466;18.036;2023-01-09T09:17:53;97754.44;;;3.94;89.52
19208;BME280;9737;59.466;18.036;2023-01-09T09:20:22;97748.34;;;3.94;89.88
19208;BME280;9737;59.466;18.036;2023-01-09T09:22:50;97760.53;;;3.95;89.24
19208;BME280;9737;59.466;18.036;2023-01-09T09:25:18;97780.19;;;4.00;89.46
19208;BME280;9737;59.466;18.036;2023-01-09T09:27:46;97797.34;;;4.04;89.63
19208;BME280;9737;59.466;18.036;2023-01-09T09:30:16;97795.69;;;4.03;89.56
19208;BME280;9737;59.466;18.036;2023-01-09T09:32:44;97804.31;;;4.06;89.53
19208;BME280;9737;59.466;18.036;2023-01-09T09:35:14;97833.38;;;4.14;89.43
19208;BME280;9737;59.466;18.036;2023-01-09T09:37:51;97883.25;;;4.25;89.93
19208;BME280;9737;59.466;18.036;2023-01-09T09:40:27;97913.16;;;4.33;89.35
19208;BME280;9737;59.466;18.036;2023-01-09T09:43:21;97933.84;;;4.38;89.70
19208;BME280;9737;59.466;18.036;2023-01-09T09:46:14;97975.13;;;4.47;89.49
19208;BME280;9737;59.466;18.036;2023-01-09T09:48:47;97981.09;;;4.49;89.13
19208;BME280;9737;59.466;18.036;2023-01-09T09:51:25;97973.88;;;4.42;89.18
19208;BME280;9737;59.466;18.036;2023-01-09T09:53:59;97962.25;;;4.44;89.57
19208;BME280;9737;59.466;18.036;2023-01-09T09:56:32;97912.75;;;4.28;89.41
19208;BME280;9737;59.466;18.036;2023-01-09T09:59:03;97916.66;;;4.34;89.65
19208;BME280;9737;59.466;18.036;2023-01-09T10:01:38;97901.78;;;4.23;89.60
19208;BME280;9737;59.466;18.036;2023-01-09T10:04:09;97929.53;;;4.37;89.18
19208;BME280;9737;59.466;18.036;2023-01-09T10:06:42;97922.75;;;4.34;89.41
19208;BME280;9737;59.466;18.036;2023-01-09T10:09:17;97946.72;;;4.41;89.16
19208;BME280;9737;59.466;18.036;2023-01-09T10:11:54;97927.44;;;4.31;89.71
19208;BME280;9737;59.466;18.036;2023-01-09T10:14:25;97956.16;;;4.44;89.32
19208;BME280;9737;59.466;18.036;2023-01-09T10:17:13;97952.00;;;4.41;89.10
19208;BME280;9737;59.466;18.036;2023-01-09T10:19:58;98001.88;;;4.52;89.63
19208;BME280;9737;59.466;18.036;2023-01-09T10:22:41;98000.91;;;4.53;89.71
19208;BME280;9737;59.466;18.036;2023-01-09T10:25:20;97999.25;;;4.52;89.98
19208;BME280;9737;59.466;18.036;2023-01-09T10:28:05;98000.22;;;4.51;89.79
19208;BME280;9737;59.466;18.036;2023-01-09T10:30:39;97994.94;;;4.51;89.13
19208;BME280;9737;59.466;18.036;2023-01-09T10:33:20;97981.09;;;4.49;89.83
19208;BME280;9737;59.466;18.036;2023-01-09T10:36:27;97999.94;;;4.54;89.07
19208;BME280;9737;59.466;18.036;2023-01-09T10:39:05;98018.09;;;4.57;89.07
19208;BME280;9737;59.466;18.036;2023-01-09T10:41:39;98033.63;;;4.60;89.94
19208;BME280;9737;59.466;18.036;2023-01-09T10:44:15;98038.75;;;4.62;89.78
19208;BME280;9737;59.466;18.036;2023-01-09T10:46:47;98032.94;;;4.58;89.63
19208;BME280;9737;59.466;18.036;2023-01-09T10:49:19;98012.97;;;4.56;89.84
19208;BME280;9737;59.466;18.036;2023-01-09T10:51:50;98031.97;;;4.59;89.56
19208;BME280;9737;59.466;18.036;2023-01-09T10:54:20;98077.47;;;4.71;89.90
19208;BME280;9737;59.466;18.036;2023-01-09T10:56:53;98037.91;;;4.61;89.98
19208;BME280;9737;59.466;18.036;2023-01-09T10:59:22;98033.63;;;4.60;89.42
19208;BME280;9737;59.466;18.036;2023-01-09T11:01:50;98034.47;;;4.61;89.32
19208;BME280;9737;59.466;18.036;2023-01-09T11:04:25;98032.94;;;4.58;89.51
19208;BME280;9737;59.466;18.036;2023-01-09T11:06:57;98024.06;;;4.59;89.27
19208;BME280;9737;59.466;18.036;2023-01-09T11:09:27;98007.97;;;4.53;89.58
19208;BME280;9737;59.466;18.036;2023-01-09T11:12:23;98018.09;;;4.57;89.09
19208;BME280;9737;59.466;18.036;2023-01-09T11:14:51;98018.78;;;4.50;89.54
19208;BME280;9737;59.466;18.036;2023-01-09T11:17:21;98013.09;;;4.54;89.21
19208;BME280;9737;59.466;18.036;2023-01-09T11:20:03;98012.13;;;4.55;89.92
19208;BME280;9737;59.466;18.036;2023-01-09T11:22:41;98028.50;;;4.59;89.28
19208;BME280;9737;59.466;18.036;2023-01-09T11:25:13;98005.75;;;4.48;89.48
19208;BME280;9737;59.466;18.036;2023-01-09T11:27:41;98026.69;;;4.59;89.46
19208;BME280;9737;59.466;18.036;2023-01-09T11:30:19;98030.16;;;4.60;89.24
19208;BME280;9737;59.466;18.036;2023-01-09T11:32:49;98030.16;;;4.60;89.21
19208;BME280;9737;59.466;18.036;2023-01-09T11:35:21;98017.66;;;4.52;89.31
19208;BME280;9737;59.466;18.036;2023-01-09T11:38:02;97974.91;;;4.29;89.58
19208;BME280;9737;59.466;18.036;2023-01-09T11:40:36;98025.03;;;4.58;89.61
19208;BME280;9737;59.466;18.036;2023-01-09T11:43:15;98017.41;;;4.55;89.38
19208;BME280;9737;59.466;18.036;2023-01-09T11:45:48;98024.06;;;4.59;89.79
19208;BME280;9737;59.466;18.036;2023-01-09T11:48:30;98028.91;;;4.54;89.71
19208;BME280;9737;59.466;18.036;2023-01-09T11:51:01;98036.94;;;4.62;89.69
19208;BME280;9737;59.466;18.036;2023-01-09T11:53:42;98045.72;;;4.63;89.79
19208;BME280;9737;59.466;18.036;2023-01-09T11:56:15;98027.66;;;4.58;89.56
19208;BME280;9737;59.466;18.036;2023-01-09T11:58:43;98016.44;;;4.56;89.73
19208;BME280;9737;59.466;18.036;2023-01-09T12:01:22;98020.88;;;4.56;89.78
19208;BME280;9737;59.466;18.036;2023-01-09T12:04:13;98024.59;;;4.53;89.63
19208;BME280;9737;59.466;18.036;2023-01-09T12:06:51;98012.13;;;4.55;89.15
19208;BME280;9737;59.466;18.036;2023-01-09T12:09:27;98025.72;;;4.60;89.67
19208;BME280;9737;59.466;18.036;2023-01-09T12:12:03;98004.50;;;4.52;89.88
19208;BME280;9737;59.466;18.036;2023-01-09T12:14:44;98003.94;;;4.49;89.24
19208;BME280;9737;59.466;18.036;2023-01-09T12:17:40;98006.31;;;4.52;89.30
19208;BME280;9737;59.466;18.036;2023-01-09T12:20:21;97992.59;;;4.48;89.38
19208;BME280;9737;59.466;18.036;2023-01-09T12:22:55;97962.25;;;4.44;89.58
19208;BME280;9737;59.466;18.036;2023-01-09T12:25:37;97981.38;;;4.46;89.59
19208;BME280;9737;59.466;18.036;2023-01-09T12:28:29;97989.00;;;4.49;89.68
19208;BME280;9737;59.466;18.036;2023-01-09T12:31:14;97986.63;;;4.46;89.63
19208;BME280;9737;59.466;18.036;2023-01-09T12:33:56;98006.44;;;4.50;89.76
19208;BME280;9737;59.466;18.036;2023-01-09T12:36:33;98020.03;;;4.55;89.21
19208;BME280;9737;59.466;18.036;2023-01-09T12:39:15;98022.66;;;4.55;89.13
19208;BME280;9737;59.466;18.036;2023-01-09T12:42:09;98016.56;;;4.55;89.59
19208;BME280;9737;59.466;18.036;2023-01-09T12:44:50;98018.22;;;4.56;89.45
19208;BME280;9737;59.466;18.036;2023-01-09T12:47:43;98012.13;;;4.55;89.28
19208;BME280;9737;59.466;18.036;2023-01-09T12:50:38;98014.06;;;4.53;89.75
19208;BME280;9737;59.466;18.036;2023-01-09T12:53:16;98028.63;;;4.57;89.47
19208;BME280;9737;59.466;18.036;2023-01-09T12:55:47;98018.22;;;4.56;89.93
19208;BME280;9737;59.466;18.036;2023-01-09T12:58:26;98020.72;;;4.57;89.90
19208;BME280;9737;59.466;18.036;2023-01-09T13:00:57;98029.59;;;4.56;89.46
19208;BME280;9737;59.466;18.036;2023-01-09T13:03:31;98030.44;;;4.57;89.76
19208;BME280;9737;59.466;18.036;2023-01-09T13:06:02;98058.75;;;4.64;89.92
19208;BME280;9737;59.466;18.036;2023-01-09T13:08:36;98039.72;;;4.61;89.95
19208;BME280;9737;59.466;18.036;2023-01-09T13:11:09;98032.78;;;4.60;89.66
19208;BME280;9737;59.466;18.036;2023-01-09T13:13:48;98035.69;;;4.57;89.50
19208;BME280;9737;59.466;18.036;2023-01-09T13:16:23;98021.69;;;4.56;89.55
19208;BME280;9737;59.466;18.036;2023-01-09T13:18:56;98007.16;;;4.52;89.81
19208;BME280;9737;59.466;18.036;2023-01-09T13:21:26;98009.63;;;4.54;89.53
19208;BME280;9737;59.466;18.036;2023-01-09T13:23:58;98004.50;;;4.52;89.89
19208;BME280;9737;59.466;18.036;2023-01-09T13:26:29;98015.31;;;4.49;89.60
19208;BME280;9737;59.466;18.036;2023-01-09T13:29:06;98032.94;;;4.58;89.91
19208;BME280;9737;59.466;18.036;2023-01-09T13:34:46;98041.78;;;4.57;89.79
19208;BME280;9737;59.466;18.036;2023-01-09T13:37:20;98015.72;;;4.54;89.89
19208;BME280;9737;59.466;18.036;2023-01-09T13:39:55;98016.00;;;4.51;89.46